Time;durP1;ratioP1;P1;durP2;ratioP2;P2;SDS_P1;SDS_P2;PMS_P1;PMS_P2;Temp;Humidity;BMP_temperature;BMP_pressure;BME280_temperature;BME280_humidity;BME280_pressure;Samples;Min_cycle;Max_cycle;Signal;HPM_P1;HPM_P2
2022/08/09 00:00:55;;;;;;;15.55;11.30;;;17.60;83.30;;;;;;4986845;28;20457;-76
2022/08/09 00:03:21;;;;;;;12.85;11.55;;;17.60;83.20;;;;;;4979622;28;20044;-76
2022/08/09 00:05:46;;;;;;;14.27;11.80;;;17.60;83.30;;;;;;4987014;28;20042;-76
2022/08/09 00:08:12;;;;;;;16.17;12.35;;;17.60;83.30;;;;;;4987333;28;20355;-76
2022/08/09 00:10:39;;;;;;;13.57;12.10;;;17.40;83.80;;;;;;4982471;28;20107;-76
2022/08/09 00:13:06;;;;;;;13.35;11.82;;;17.30;84.30;;;;;;4990897;28;20042;-76
2022/08/09 00:15:32;;;;;;;14.98;11.82;;;17.20;84.50;;;;;;4996378;28;20037;-76
2022/08/09 00:17:58;;;;;;;15.23;12.63;;;17.20;84.50;;;;;;5014796;28;20530;-76
2022/08/09 00:20:23;;;;;;;13.60;12.10;;;17.20;84.60;;;;;;4981277;28;20588;-76
2022/08/09 00:22:49;;;;;;;16.05;13.00;;;17.20;84.80;;;;;;4975897;28;20034;-76
2022/08/09 00:25:15;;;;;;;15.20;12.55;;;17.10;84.70;;;;;;4998520;28;20379;-76
2022/08/09 00:27:41;;;;;;;14.57;13.07;;;17.10;84.80;;;;;;5019890;28;20029;-76
2022/08/09 00:30:07;;;;;;;14.43;12.93;;;17.10;85.00;;;;;;4978928;28;20507;-76
2022/08/09 00:32:33;;;;;;;14.52;12.15;;;17.10;85.00;;;;;;4982381;28;20059;-76
2022/08/09 00:34:59;;;;;;;16.52;13.27;;;17.10;85.10;;;;;;4993278;28;20041;-76
2022/08/09 00:37:25;;;;;;;15.05;13.35;;;17.00;85.20;;;;;;4983076;28;20038;-76
2022/08/09 00:39:51;;;;;;;15.45;13.10;;;17.00;85.30;;;;;;4989056;28;20029;-76
2022/08/09 00:42:17;;;;;;;15.05;13.32;;;17.00;85.30;;;;;;4978754;28;20410;-76
2022/08/09 00:44:43;;;;;;;16.85;12.27;;;17.00;85.20;;;;;;4986509;28;20210;-77
2022/08/09 00:47:09;;;;;;;14.55;12.77;;;17.00;85.20;;;;;;4981471;28;20049;-77
2022/08/09 00:49:35;;;;;;;15.00;13.05;;;17.00;85.30;;;;;;4999295;28;20040;-76
2022/08/09 00:52:01;;;;;;;15.35;12.93;;;17.00;85.20;;;;;;4994858;28;20062;-76
2022/08/09 00:54:27;;;;;;;21.73;13.85;;;17.00;85.20;;;;;;5020811;28;20032;-77
2022/08/09 00:56:53;;;;;;;18.17;14.50;;;17.00;85.30;;;;;;5016092;28;20030;-77
2022/08/09 00:59:19;;;;;;;18.70;12.65;;;17.00;85.30;;;;;;5017527;28;20044;-76
2022/08/09 01:01:47;;;;;;;17.08;13.88;;;16.90;85.30;;;;;;5015139;28;20628;-76
2022/08/09 01:04:28;;;;;;;16.20;13.95;;;16.90;85.20;;;;;;5009696;28;20111;-77
2022/08/09 01:07:11;;;;;;;16.63;13.65;;;16.90;85.20;;;;;;5010543;28;20060;-77
2022/08/09 01:09:52;;;;;;;19.13;14.27;;;16.90;85.40;;;;;;4981693;28;20533;-76
2022/08/09 01:12:36;;;;;;;15.90;14.10;;;16.80;85.40;;;;;;4991231;28;20137;-76
2022/08/09 01:15:06;;;;;;;16.58;14.82;;;16.80;85.50;;;;;;4982541;28;20046;-76
2022/08/09 01:17:37;;;;;;;16.33;13.82;;;16.80;85.50;;;;;;4976761;28;20488;-76
2022/08/09 01:20:16;;;;;;;16.02;14.13;;;16.70;85.70;;;;;;5001071;28;20049;-76
2022/08/09 01:22:54;;;;;;;15.88;13.73;;;16.70;85.80;;;;;;4993264;28;20065;-76
2022/08/09 01:25:38;;;;;;;15.50;13.88;;;16.70;85.70;;;;;;4993985;28;20789;-76
2022/08/09 01:28:05;;;;;;;18.70;14.57;;;16.60;85.90;;;;;;4981318;28;20037;-77
2022/08/09 01:30:33;;;;;;;16.65;14.30;;;16.60;85.80;;;;;;4986844;28;20493;-77
2022/08/09 01:33:00;;;;;;;15.52;13.93;;;16.60;86.00;;;;;;4992759;28;20053;-76
2022/08/09 01:36:01;;;;;;;15.85;13.70;;;16.60;86.00;;;;;;4993353;28;20038;-77
2022/08/09 01:38:29;;;;;;;15.82;13.57;;;16.60;86.10;;;;;;5009779;28;20091;-77
2022/08/09 01:41:12;;;;;;;15.98;14.38;;;16.60;86.10;;;;;;5005600;28;20068;-76
2022/08/09 01:43:40;;;;;;;15.73;13.98;;;16.50;86.10;;;;;;5007819;28;20087;-76
2022/08/09 01:46:08;;;;;;;15.30;13.75;;;16.60;86.10;;;;;;4992558;28;20378;-76
2022/08/09 01:48:34;;;;;;;18.10;14.10;;;16.60;86.10;;;;;;4998439;28;20461;-77
2022/08/09 01:51:02;;;;;;;15.57;13.90;;;16.50;86.10;;;;;;4983120;28;20033;-76
2022/08/09 01:53:30;;;;;;;15.20;13.60;;;16.50;86.00;;;;;;4987694;28;20517;-77
2022/08/09 01:55:57;;;;;;;16.60;13.35;;;16.50;86.00;;;;;;4993489;28;20038;-76
2022/08/09 01:58:25;;;;;;;15.70;13.82;;;16.50;86.00;;;;;;4994118;28;20698;-77
2022/08/09 02:00:53;;;;;;;16.25;12.80;;;16.40;86.20;;;;;;4996188;28;20027;-76
2022/08/09 02:03:20;;;;;;;15.68;13.93;;;16.40;86.30;;;;;;4980573;28;20049;-76
2022/08/09 02:05:48;;;;;;;15.55;13.18;;;16.40;86.30;;;;;;4980208;28;20540;-77
2022/08/09 02:08:18;;;;;;;16.13;13.40;;;16.40;86.40;;;;;;4992724;28;20026;-76
2022/08/09 02:10:48;;;;;;;15.60;13.93;;;16.40;86.50;;;;;;4996355;28;20486;-77
2022/08/09 02:13:16;;;;;;;16.17;13.43;;;16.40;86.50;;;;;;4985675;28;20045;-76
2022/08/09 02:15:44;;;;;;;15.07;13.48;;;16.40;86.40;;;;;;4997126;28;20038;-76
2022/08/09 02:18:12;;;;;;;20.88;13.80;;;16.40;86.40;;;;;;4984054;28;20049;-77
2022/08/09 02:20:42;;;;;;;14.07;12.63;;;16.40;86.40;;;;;;4971072;28;20038;-76
2022/08/09 02:23:19;;;;;;;15.57;13.30;;;16.40;86.40;;;;;;4989402;28;20538;-77
2022/08/09 02:25:47;;;;;;;19.33;14.13;;;16.30;86.40;;;;;;4982949;28;20058;-76
2022/08/09 02:28:19;;;;;;;15.93;13.13;;;16.30;86.40;;;;;;4986435;28;20037;-76
2022/08/09 02:31:00;;;;;;;14.85;13.32;;;16.30;86.40;;;;;;4998216;28;20044;-76
2022/08/09 02:33:29;;;;;;;16.27;12.70;;;16.30;86.50;;;;;;4994791;28;20507;-76
2022/08/09 02:35:58;;;;;;;14.88;13.30;;;16.30;86.50;;;;;;4986681;28;20310;-76
2022/08/09 02:38:32;;;;;;;18.63;14.23;;;16.30;86.60;;;;;;4999064;28;20049;-77
2022/08/09 02:41:05;;;;;;;16.38;14.68;;;16.20;86.70;;;;;;4989828;28;20031;-76
2022/08/09 02:43:33;;;;;;;15.60;13.95;;;16.20;86.70;;;;;;4993124;28;20262;-77
2022/08/09 02:46:01;;;;;;;22.80;14.23;;;16.20;86.80;;;;;;5026985;28;20412;-77
2022/08/09 02:48:28;;;;;;;20.85;15.50;;;16.20;86.90;;;;;;4979638;28;20050;-76
2022/08/09 02:50:57;;;;;;;19.40;16.52;;;16.20;86.90;;;;;;4983401;28;20061;-76
2022/08/09 02:53:26;;;;;;;17.77;14.77;;;16.20;86.90;;;;;;4978787;28;20104;-76
2022/08/09 02:55:56;;;;;;;20.77;15.18;;;16.10;86.80;;;;;;5016306;28;20028;-76
2022/08/09 02:58:25;;;;;;;16.75;14.65;;;16.10;86.80;;;;;;5006247;28;20046;-77
2022/08/09 03:00:52;;;;;;;18.13;14.98;;;16.10;86.80;;;;;;5014940;28;20121;-76
2022/08/09 03:03:20;;;;;;;17.00;15.18;;;16.10;86.80;;;;;;5017492;28;20041;-76
2022/08/09 03:05:49;;;;;;;15.60;14.00;;;16.10;87.00;;;;;;4976167;28;20026;-77
2022/08/09 03:08:16;;;;;;;17.10;14.00;;;16.10;87.10;;;;;;4986613;28;20045;-76
2022/08/09 03:10:45;;;;;;;15.55;13.30;;;16.10;87.10;;;;;;4992656;28;20132;-76
2022/08/09 03:13:13;;;;;;;16.15;13.32;;;16.10;87.20;;;;;;4983721;28;20037;-76
2022/08/09 03:15:40;;;;;;;13.90;12.48;;;16.10;87.20;;;;;;4974128;28;20521;-76
2022/08/09 03:18:06;;;;;;;15.55;13.85;;;16.10;87.20;;;;;;4976577;28;20038;-76
2022/08/09 03:20:32;;;;;;;15.75;13.60;;;16.10;87.20;;;;;;4976882;28;20038;-76
2022/08/09 03:22:58;;;;;;;19.23;13.75;;;16.00;87.30;;;;;;4978200;28;20159;-75
2022/08/09 03:25:27;;;;;;;17.35;14.40;;;16.00;87.40;;;;;;4976697;28;20433;-75
2022/08/09 03:27:53;;;;;;;17.30;13.65;;;16.00;87.50;;;;;;4975387;28;20038;-75
2022/08/09 03:30:19;;;;;;;17.10;14.57;;;16.00;87.60;;;;;;4985935;28;20076;-75
2022/08/09 03:32:45;;;;;;;17.63;13.50;;;15.90;87.70;;;;;;4985611;28;20559;-75
2022/08/09 03:35:11;;;;;;;17.95;14.43;;;15.90;87.90;;;;;;4974235;28;20062;-75
2022/08/09 03:37:38;;;;;;;18.70;15.00;;;15.90;87.80;;;;;;4980460;28;20130;-75
2022/08/09 03:40:05;;;;;;;19.90;16.08;;;15.90;88.00;;;;;;4982545;28;20034;-76
2022/08/09 03:42:31;;;;;;;16.90;14.77;;;15.80;88.10;;;;;;4978805;28;20053;-76
2022/08/09 03:44:57;;;;;;;18.20;15.10;;;15.90;88.20;;;;;;4978165;28;20458;-75
2022/08/09 03:47:22;;;;;;;18.33;15.40;;;15.80;88.20;;;;;;4975016;28;20377;-76
2022/08/09 03:49:49;;;;;;;18.20;15.15;;;15.90;88.20;;;;;;4997082;28;20566;-76
2022/08/09 03:52:17;;;;;;;18.65;14.90;;;15.80;88.10;;;;;;4973514;28;20039;-76
2022/08/09 03:54:45;;;;;;;17.77;14.43;;;15.90;88.20;;;;;;4982382;28;20430;-76
2022/08/09 03:57:13;;;;;;;20.63;15.00;;;15.80;88.20;;;;;;4977038;28;20045;-77
2022/08/09 03:59:43;;;;;;;17.65;15.75;;;15.80;88.20;;;;;;4986021;28;20428;-77
2022/08/09 04:02:09;;;;;;;18.42;15.35;;;15.80;88.20;;;;;;4996080;28;20045;-76
2022/08/09 04:04:35;;;;;;;19.20;15.57;;;15.80;88.30;;;;;;4987546;28;20026;-76
2022/08/09 04:07:02;;;;;;;16.45;14.55;;;15.80;88.30;;;;;;4985387;28;20035;-76
2022/08/09 04:09:28;;;;;;;19.00;15.23;;;15.80;88.30;;;;;;4995638;28;20045;-76
2022/08/09 04:12:10;;;;;;;19.48;16.75;;;15.80;88.40;;;;;;4970064;28;20483;-76
2022/08/09 04:14:37;;;;;;;19.30;15.68;;;15.80;88.40;;;;;;4971499;28;20197;-77
2022/08/09 04:17:03;;;;;;;19.55;16.33;;;15.70;88.60;;;;;;4977631;28;20449;-76
2022/08/09 04:19:29;;;;;;;19.38;16.60;;;15.70;88.60;;;;;;4975580;28;20035;-76
2022/08/09 04:21:54;;;;;;;19.55;16.77;;;15.70;88.80;;;;;;4994532;28;20031;-78
2022/08/09 04:24:20;;;;;;;19.33;16.25;;;15.70;88.80;;;;;;4991026;28;20030;-76
2022/08/09 04:26:46;;;;;;;20.17;16.35;;;15.70;88.80;;;;;;4991548;28;20035;-76
2022/08/09 04:29:11;;;;;;;20.10;15.85;;;15.70;89.00;;;;;;4977562;28;20355;-76
2022/08/09 04:31:37;;;;;;;19.05;15.85;;;15.70;88.90;;;;;;4982239;28;20076;-76
2022/08/09 04:34:03;;;;;;;22.63;16.83;;;15.70;89.00;;;;;;4984304;28;20030;-77
2022/08/09 04:36:30;;;;;;;21.70;17.13;;;15.70;89.00;;;;;;4990507;28;20427;-76
2022/08/09 04:38:58;;;;;;;23.95;16.98;;;15.70;89.00;;;;;;4975773;28;20366;-76
2022/08/09 04:41:24;;;;;;;21.02;16.50;;;15.70;89.10;;;;;;4977109;28;20190;-73
2022/08/09 04:43:53;;;;;;;18.95;16.55;;;15.60;89.10;;;;;;4974884;28;20476;-73
2022/08/09 04:46:19;;;;;;;19.25;16.45;;;15.70;89.20;;;;;;4985447;28;20038;-73
2022/08/09 04:48:45;;;;;;;18.80;16.33;;;15.70;89.10;;;;;;4977429;28;20101;-73
2022/08/09 04:51:11;;;;;;;21.20;15.65;;;15.70;89.00;;;;;;4979090;28;20027;-73
2022/08/09 04:53:37;;;;;;;21.27;16.38;;;15.70;88.90;;;;;;4999303;28;20377;-72
2022/08/09 04:56:03;;;;;;;17.73;15.45;;;15.80;89.00;;;;;;5006118;28;20034;-73
2022/08/09 04:58:29;;;;;;;21.90;16.38;;;15.80;89.00;;;;;;4990627;28;20045;-73
2022/08/09 05:00:55;;;;;;;19.98;15.88;;;15.80;88.90;;;;;;4977678;28;20030;-73
2022/08/09 05:03:21;;;;;;;20.38;15.73;;;15.90;88.80;;;;;;4985957;28;20084;-73
2022/08/09 05:05:47;;;;;;;18.75;16.08;;;15.90;88.70;;;;;;4978693;28;20369;-72
2022/08/09 05:08:13;;;;;;;17.95;15.65;;;15.90;88.60;;;;;;4981914;28;20085;-73
2022/08/09 05:10:39;;;;;;;20.52;15.70;;;15.90;88.60;;;;;;4979096;28;20078;-73
2022/08/09 05:13:04;;;;;;;19.35;15.25;;;16.00;88.60;;;;;;4980475;28;20124;-73
2022/08/09 05:15:30;;;;;;;24.65;15.75;;;16.00;88.40;;;;;;4980545;28;20030;-72
2022/08/09 05:17:56;;;;;;;20.27;16.58;;;16.00;88.40;;;;;;4981384;28;20820;-72
2022/08/09 05:20:24;;;;;;;18.05;15.30;;;16.00;88.60;;;;;;4980856;28;20035;-72
2022/08/09 05:22:52;;;;;;;19.27;15.77;;;16.10;88.50;;;;;;4982783;28;20038;-72
2022/08/09 05:25:18;;;;;;;19.92;16.17;;;16.10;88.50;;;;;;4975859;28;20045;-73
2022/08/09 05:27:44;;;;;;;18.55;15.40;;;16.10;88.50;;;;;;4986146;28;20023;-73
2022/08/09 05:30:10;;;;;;;19.63;15.85;;;16.10;88.60;;;;;;4985419;28;20081;-72
2022/08/09 05:32:36;;;;;;;19.30;15.23;;;16.10;88.50;;;;;;4981803;28;20046;-73
2022/08/09 05:35:02;;;;;;;17.88;14.63;;;16.20;88.50;;;;;;4979871;28;20118;-73
2022/08/09 05:37:28;;;;;;;18.90;15.68;;;16.30;88.30;;;;;;4993434;28;20026;-73
2022/08/09 05:39:54;;;;;;;19.85;15.40;;;16.40;88.20;;;;;;4982999;28;20073;-73
2022/08/09 05:42:19;;;;;;;21.50;15.30;;;16.40;88.10;;;;;;4980443;28;20394;-72
2022/08/09 05:44:45;;;;;;;19.77;15.43;;;16.50;88.10;;;;;;4981184;28;20031;-72
2022/08/09 05:47:10;;;;;;;18.95;15.52;;;16.60;87.80;;;;;;4995048;28;20042;-73
2022/08/09 05:49:36;;;;;;;19.13;14.65;;;16.60;87.80;;;;;;4993639;28;20030;-73
2022/08/09 05:52:02;;;;;;;19.27;14.38;;;16.60;87.80;;;;;;4996772;28;20054;-73
2022/08/09 05:54:28;;;;;;;18.58;14.80;;;16.80;87.50;;;;;;4995075;28;20034;-73
2022/08/09 05:56:53;;;;;;;20.27;16.02;;;16.80;87.30;;;;;;4996418;28;20401;-73
2022/08/09 05:59:20;;;;;;;22.90;14.57;;;16.90;87.00;;;;;;4999239;28;20042;-72
2022/08/09 06:01:46;;;;;;;20.52;15.38;;;16.90;86.80;;;;;;4985582;28;20042;-73
2022/08/09 06:04:12;;;;;;;20.58;15.35;;;17.00;86.70;;;;;;4978195;28;20526;-72
2022/08/09 06:06:38;;;;;;;18.75;14.73;;;17.10;86.20;;;;;;4978755;28;20649;-71
2022/08/09 06:09:04;;;;;;;21.92;15.15;;;17.10;86.10;;;;;;5002505;28;20164;-72
2022/08/09 06:11:30;;;;;;;18.20;14.60;;;17.40;85.90;;;;;;4990726;28;20050;-72
2022/08/09 06:13:56;;;;;;;17.60;14.38;;;17.50;85.40;;;;;;4991128;28;20505;-72
2022/08/09 06:16:22;;;;;;;20.88;13.85;;;17.60;85.20;;;;;;4991756;28;20069;-72
2022/08/09 06:18:48;;;;;;;16.80;13.98;;;17.70;84.80;;;;;;4998933;28;20112;-72
2022/08/09 06:21:14;;;;;;;15.63;12.65;;;17.80;83.70;;;;;;5007400;28;20535;-71
2022/08/09 06:23:40;;;;;;;19.20;12.93;;;17.90;83.60;;;;;;5001904;28;20030;-71
2022/08/09 06:26:06;;;;;;;17.00;12.95;;;18.00;83.50;;;;;;4994211;28;20429;-72
2022/08/09 06:28:31;;;;;;;16.40;12.45;;;18.10;82.80;;;;;;5012636;28;20042;-72
2022/08/09 06:30:58;;;;;;;18.10;13.27;;;18.10;82.40;;;;;;5004084;28;20044;-72
2022/08/09 06:33:24;;;;;;;22.05;13.75;;;18.30;81.90;;;;;;5000769;28;20050;-72
2022/08/09 06:35:49;;;;;;;17.33;12.15;;;18.40;81.90;;;;;;5008995;28;20397;-73
2022/08/09 06:38:15;;;;;;;20.42;12.10;;;18.60;81.40;;;;;;5007327;28;20492;-75
2022/08/09 06:40:41;;;;;;;17.45;11.90;;;18.60;80.70;;;;;;4997611;28;20076;-75
2022/08/09 06:43:07;;;;;;;17.60;11.85;;;18.70;80.40;;;;;;5003401;28;20040;-75
2022/08/09 06:45:32;;;;;;;15.57;11.43;;;18.70;80.10;;;;;;5003223;28;20029;-74
2022/08/09 06:47:58;;;;;;;15.55;11.32;;;18.90;79.60;;;;;;4989816;28;20500;-74
2022/08/09 06:50:24;;;;;;;16.50;11.52;;;19.10;78.90;;;;;;4992971;28;20464;-75
2022/08/09 06:52:50;;;;;;;16.45;11.05;;;19.20;78.60;;;;;;4994132;28;20176;-73
2022/08/09 06:55:19;;;;;;;15.73;10.68;;;19.40;78.10;;;;;;5003189;28;20494;-74
2022/08/09 06:57:45;;;;;;;17.17;10.77;;;19.60;77.60;;;;;;4993419;28;20034;-75
2022/08/09 07:00:12;;;;;;;17.02;10.38;;;19.70;76.20;;;;;;4997727;28;20022;-73
2022/08/09 07:02:39;;;;;;;14.38;9.93;;;19.90;75.60;;;;;;4987506;28;20049;-76
2022/08/09 07:05:05;;;;;;;16.08;10.30;;;20.00;74.90;;;;;;5004320;28;20037;-75
2022/08/09 07:07:31;;;;;;;14.90;9.98;;;20.00;74.80;;;;;;5005483;28;20054;-76
2022/08/09 07:09:57;;;;;;;13.40;10.07;;;20.10;74.00;;;;;;4995844;28;20150;-77
2022/08/09 07:12:23;;;;;;;17.60;10.50;;;20.10;73.80;;;;;;4993108;28;20042;-76
2022/08/09 07:14:49;;;;;;;16.73;11.15;;;20.10;73.60;;;;;;4993622;28;20042;-74
2022/08/09 07:17:15;;;;;;;15.10;9.73;;;20.30;73.00;;;;;;5001143;28;20034;-75
2022/08/09 07:19:41;;;;;;;13.50;10.00;;;20.40;73.20;;;;;;5003856;28;20029;-75
2022/08/09 07:22:07;;;;;;;18.02;10.60;;;20.60;72.80;;;;;;5012196;28;20039;-75
2022/08/09 07:24:33;;;;;;;17.40;10.00;;;20.70;71.80;;;;;;5010035;28;20069;-75
2022/08/09 07:27:00;;;;;;;14.23;8.48;;;20.80;71.40;;;;;;5001407;28;20050;-74
2022/08/09 07:29:27;;;;;;;16.00;9.23;;;21.00;71.50;;;;;;5012032;28;20451;-76
2022/08/09 07:31:53;;;;;;;13.23;8.20;;;21.10;70.40;;;;;;5019622;28;20112;-74
2022/08/09 07:34:19;;;;;;;15.45;8.43;;;21.20;69.10;;;;;;5007502;28;20038;-76
2022/08/09 07:36:46;;;;;;;13.10;7.80;;;21.10;68.90;;;;;;5017665;28;20037;-74
2022/08/09 07:39:12;;;;;;;11.68;7.97;;;21.10;68.10;;;;;;5028468;28;20037;-76
2022/08/09 07:41:38;;;;;;;14.90;7.88;;;21.30;68.40;;;;;;5012705;28;20105;-78
2022/08/09 07:44:03;;;;;;;12.13;7.30;;;21.30;68.20;;;;;;5006770;28;20084;-75
2022/08/09 07:46:29;;;;;;;11.30;6.93;;;21.50;67.80;;;;;;5009649;28;20029;-75
2022/08/09 07:48:55;;;;;;;14.35;7.18;;;21.70;67.00;;;;;;5005196;28;20131;-75
2022/08/09 07:51:21;;;;;;;12.02;7.50;;;21.60;65.80;;;;;;4999182;28;21065;-74
2022/08/09 07:53:49;;;;;;;13.65;6.60;;;21.60;66.80;;;;;;4999245;28;20154;-76
2022/08/09 07:56:14;;;;;;;11.80;6.18;;;21.80;65.60;;;;;;5004774;28;20397;-77
2022/08/09 07:58:40;;;;;;;12.07;6.53;;;21.90;65.10;;;;;;5005848;28;20037;-75
2022/08/09 08:01:06;;;;;;;12.45;6.30;;;22.00;64.50;;;;;;5002860;28;20035;-76
2022/08/09 08:03:31;;;;;;;10.63;6.25;;;21.90;64.10;;;;;;5006779;28;20033;-75
2022/08/09 08:05:57;;;;;;;12.60;5.85;;;22.10;64.40;;;;;;5007303;28;20038;-77
2022/08/09 08:08:23;;;;;;;15.25;6.03;;;22.30;63.80;;;;;;5009252;28;20038;-76
2022/08/09 08:10:49;;;;;;;13.13;6.20;;;22.60;62.30;;;;;;5010228;28;20095;-75
2022/08/09 08:13:15;;;;;;;12.98;5.57;;;22.60;61.90;;;;;;5002118;28;20033;-75
2022/08/09 08:15:41;;;;;;;11.25;4.85;;;22.60;61.70;;;;;;5006173;28;20036;-73
2022/08/09 08:18:06;;;;;;;8.23;3.95;;;22.70;61.20;;;;;;5000183;28;20124;-73
2022/08/09 08:20:32;;;;;;;8.25;3.45;;;22.80;59.60;;;;;;4992969;28;20033;-73
2022/08/09 08:23:00;;;;;;;10.77;4.65;;;23.00;58.50;;;;;;5009829;28;20385;-74
2022/08/09 08:25:26;;;;;;;8.88;4.28;;;23.10;59.90;;;;;;5004941;28;20385;-73
2022/08/09 08:27:51;;;;;;;12.00;4.50;;;22.90;60.60;;;;;;4994163;28;20571;-74
2022/08/09 08:30:17;;;;;;;9.45;4.10;;;23.10;59.20;;;;;;5014924;28;20033;-74
2022/08/09 08:32:43;;;;;;;8.63;3.80;;;23.30;59.30;;;;;;5003347;28;20045;-74
2022/08/09 08:35:09;;;;;;;9.52;3.50;;;23.60;58.70;;;;;;4999160;28;20061;-73
2022/08/09 08:37:35;;;;;;;8.77;3.75;;;23.60;56.80;;;;;;5013568;28;20049;-73
2022/08/09 08:40:02;;;;;;;8.93;3.70;;;23.80;56.80;;;;;;5003461;28;20035;-74
2022/08/09 08:42:29;;;;;;;8.95;3.67;;;24.10;56.40;;;;;;4981576;28;20331;-75
2022/08/09 08:44:57;;;;;;;9.48;3.75;;;24.10;57.60;;;;;;4996164;28;20049;-75
2022/08/09 08:47:25;;;;;;;9.98;3.70;;;24.00;55.60;;;;;;4990738;28;20038;-73
2022/08/09 08:49:53;;;;;;;7.70;3.15;;;24.20;55.70;;;;;;4979325;28;20030;-73
2022/08/09 08:52:21;;;;;;;8.55;2.50;;;24.20;53.80;;;;;;4979883;28;20038;-73
2022/08/09 08:54:47;;;;;;;6.15;2.13;;;24.20;54.40;;;;;;4974557;28;20054;-74
2022/08/09 08:57:13;;;;;;;11.70;2.40;;;24.30;52.90;;;;;;4980158;28;20039;-74
2022/08/09 08:59:39;;;;;;;11.48;2.63;;;24.30;52.00;;;;;;4982924;28;20030;-73
2022/08/09 09:02:07;;;;;;;6.75;2.47;;;23.80;52.30;;;;;;4978622;28;20105;-74
2022/08/09 09:04:36;;;;;;;7.80;2.65;;;23.80;52.80;;;;;;4995960;28;20019;-73
2022/08/09 09:07:08;;;;;;;8.88;2.40;;;24.10;52.30;;;;;;5004922;28;20034;-74
2022/08/09 09:09:36;;;;;;;7.60;2.10;;;23.90;51.50;;;;;;4988730;28;20403;-73
2022/08/09 09:12:02;;;;;;;7.00;2.45;;;24.00;51.10;;;;;;4989914;28;20062;-75
2022/08/09 09:14:30;;;;;;;6.45;2.10;;;24.10;50.20;;;;;;4994564;28;20425;-73
2022/08/09 09:16:55;;;;;;;5.30;1.90;;;24.10;51.30;;;;;;4995861;28;20065;-74
2022/08/09 09:19:21;;;;;;;5.22;1.92;;;24.30;51.30;;;;;;5002311;28;20034;-72
2022/08/09 09:21:57;;;;;;;8.02;2.63;;;24.70;50.20;;;;;;5005195;28;20480;-73
2022/08/09 09:24:27;;;;;;;5.88;1.67;;;24.80;49.70;;;;;;4997833;28;20061;-73
2022/08/09 09:26:55;;;;;;;5.38;1.83;;;24.70;48.60;;;;;;4994995;28;20038;-73
2022/08/09 09:29:37;;;;;;;10.13;2.40;;;24.70;48.60;;;;;;4987521;28;20122;-73
2022/08/09 09:32:04;;;;;;;9.68;2.55;;;24.70;49.60;;;;;;5004007;28;20076;-73
2022/08/09 09:34:30;;;;;;;4.97;1.90;;;24.60;49.40;;;;;;4992318;28;20117;-73
2022/08/09 09:36:57;;;;;;;6.25;2.00;;;24.40;50.60;;;;;;5023235;28;20552;-73
2022/08/09 09:39:24;;;;;;;7.55;2.15;;;24.90;48.10;;;;;;5016545;28;20117;-74
2022/08/09 09:41:50;;;;;;;5.10;2.00;;;25.00;49.20;;;;;;5013905;28;20532;-73
2022/08/09 09:44:34;;;;;;;6.45;2.10;;;25.20;47.60;;;;;;5008608;28;20175;-73
2022/08/09 09:47:12;;;;;;;6.07;2.60;;;25.10;47.30;;;;;;5027158;28;20068;-73
2022/08/09 09:49:38;;;;;;;5.78;2.60;;;24.90;48.00;;;;;;4997167;28;20458;-73
2022/08/09 09:52:07;;;;;;;8.65;2.28;;;25.00;48.10;;;;;;5004653;28;20125;-73
2022/08/09 09:54:45;;;;;;;6.78;1.85;;;25.00;48.70;;;;;;5029453;28;20026;-72
2022/08/09 09:57:22;;;;;;;5.63;2.13;;;25.10;49.00;;;;;;5000633;28;20513;-74
2022/08/09 09:59:50;;;;;;;5.45;2.15;;;25.20;46.90;;;;;;5006908;28;20030;-73
2022/08/09 10:02:17;;;;;;;6.18;1.95;;;25.10;47.00;;;;;;4998595;28;20038;-73
2022/08/09 10:04:44;;;;;;;6.70;2.22;;;25.10;46.80;;;;;;5013922;28;20037;-73
2022/08/09 10:07:27;;;;;;;6.30;2.03;;;25.50;47.70;;;;;;4999576;28;20112;-73
2022/08/09 10:09:55;;;;;;;6.95;1.65;;;25.60;46.40;;;;;;4992327;28;20038;-73
2022/08/09 10:12:27;;;;;;;4.22;1.65;;;25.60;45.50;;;;;;5007751;28;20054;-73
2022/08/09 10:15:14;;;;;;;6.63;1.40;;;25.90;45.00;;;;;;5011345;28;20042;-73
2022/08/09 10:17:42;;;;;;;5.40;2.05;;;26.10;44.70;;;;;;4984304;28;20437;-73
2022/08/09 10:20:16;;;;;;;5.00;1.85;;;26.40;44.30;;;;;;4985857;28;20046;-72
2022/08/09 10:22:42;;;;;;;5.18;1.85;;;26.30;43.20;;;;;;4979509;28;20039;-72
2022/08/09 10:25:09;;;;;;;8.48;2.10;;;26.20;43.70;;;;;;4980259;28;20516;-73
2022/08/09 10:27:35;;;;;;;4.57;1.77;;;25.80;44.90;;;;;;4980519;28;20034;-73
2022/08/09 10:30:03;;;;;;;7.50;1.73;;;25.80;44.50;;;;;;4978106;28;20130;-74
2022/08/09 10:32:29;;;;;;;4.80;1.80;;;25.70;45.40;;;;;;4992165;28;20042;-73
2022/08/09 10:34:55;;;;;;;6.85;1.85;;;26.10;44.80;;;;;;4996305;28;20084;-73
2022/08/09 10:37:22;;;;;;;6.75;2.17;;;26.10;45.30;;;;;;4992729;28;20565;-74
2022/08/09 10:39:48;;;;;;;3.60;1.75;;;26.50;43.90;;;;;;4995309;28;20038;-75
2022/08/09 10:42:14;;;;;;;4.70;1.77;;;26.50;44.60;;;;;;4977565;28;20457;-74
2022/08/09 10:44:43;;;;;;;4.47;1.63;;;26.20;43.50;;;;;;4981865;28;20078;-74
2022/08/09 10:47:24;;;;;;;6.47;1.90;;;26.20;45.00;;;;;;4979726;28;20462;-74
2022/08/09 10:50:04;;;;;;;6.35;1.83;;;26.60;43.70;;;;;;4977686;28;20027;-74
2022/08/09 10:53:06;;;;;;;3.42;1.33;;;26.70;42.90;;;;;;5000894;28;20038;-74
2022/08/09 10:55:33;;;;;;;8.57;2.13;;;26.30;43.40;;;;;;4999107;28;20030;-74
2022/08/09 10:57:59;;;;;;;4.82;2.03;;;26.70;43.00;;;;;;4983567;28;20122;-73
2022/08/09 11:00:28;;;;;;;4.82;1.75;;;26.90;42.10;;;;;;4973570;28;20466;-74
2022/08/09 11:02:54;;;;;;;13.95;2.72;;;26.90;42.00;;;;;;5002818;28;20073;-73
2022/08/09 11:05:21;;;;;;;4.93;1.85;;;26.60;42.50;;;;;;4984208;28;20038;-74
2022/08/09 11:07:48;;;;;;;5.85;2.20;;;26.60;42.50;;;;;;4987025;28;20577;-73
2022/08/09 11:10:32;;;;;;;5.63;1.90;;;26.30;42.70;;;;;;4983976;28;20035;-73
2022/08/09 11:13:15;;;;;;;5.18;1.98;;;26.10;43.20;;;;;;4981416;28;20060;-74
2022/08/09 11:15:41;;;;;;;9.77;2.85;;;26.50;43.40;;;;;;4987732;28;20042;-73
2022/08/09 11:18:11;;;;;;;6.45;2.05;;;26.40;43.70;;;;;;4990135;28;20038;-74
2022/08/09 11:20:41;;;;;;;7.13;2.20;;;26.50;43.40;;;;;;4992000;28;20137;-74
2022/08/09 11:23:07;;;;;;;5.30;2.15;;;26.70;42.80;;;;;;4999252;28;20398;-74
2022/08/09 11:25:35;;;;;;;7.10;2.22;;;26.90;42.10;;;;;;5002787;28;20040;-73
2022/08/09 11:28:27;;;;;;;4.88;1.85;;;26.60;42.60;;;;;;4999407;28;20041;-74
2022/08/09 11:30:53;;;;;;;5.22;1.75;;;26.60;42.90;;;;;;5001320;28;20443;-75
2022/08/09 11:33:19;;;;;;;5.68;1.85;;;26.90;42.20;;;;;;4998520;28;20054;-74
2022/08/09 11:35:53;;;;;;;8.15;1.90;;;27.10;42.60;;;;;;4999428;28;20033;-74
2022/08/09 11:38:32;;;;;;;8.75;2.08;;;27.10;40.60;;;;;;5000167;28;20039;-74
2022/08/09 11:41:02;;;;;;;6.32;1.77;;;27.20;41.10;;;;;;5001489;28;20040;-74
2022/08/09 11:43:28;;;;;;;5.40;2.10;;;27.20;40.70;;;;;;4993541;28;20539;-74
2022/08/09 11:46:00;;;;;;;7.65;2.67;;;27.40;40.70;;;;;;4995744;28;20042;-73
2022/08/09 11:48:30;;;;;;;5.43;1.95;;;27.50;40.80;;;;;;4992360;28;20057;-73
2022/08/09 11:50:56;;;;;;;12.65;1.95;;;27.70;40.90;;;;;;5003962;28;20030;-74
2022/08/09 11:53:32;;;;;;;6.10;1.90;;;27.60;40.50;;;;;;5000153;28;20049;-74
2022/08/09 11:56:13;;;;;;;4.25;2.13;;;27.70;39.80;;;;;;4988361;28;20050;-74
2022/08/09 11:58:39;;;;;;;5.93;2.20;;;27.30;42.00;;;;;;4983640;28;20041;-74
2022/08/09 12:01:05;;;;;;;7.68;2.13;;;27.30;42.20;;;;;;4983894;28;20180;-71
2022/08/09 12:03:32;;;;;;;8.02;2.47;;;27.50;42.20;;;;;;4974969;28;20133;-72
2022/08/09 12:06:00;;;;;;;9.68;2.75;;;27.50;41.20;;;;;;4973825;28;20553;-72
2022/08/09 12:08:28;;;;;;;7.72;2.42;;;27.20;41.80;;;;;;4998250;28;20533;-72
2022/08/09 12:10:56;;;;;;;6.00;2.20;;;27.10;43.40;;;;;;4991560;28;20046;-72
2022/08/09 12:13:37;;;;;;;6.65;2.45;;;27.30;42.30;;;;;;4984043;28;20074;-72
2022/08/09 12:16:06;;;;;;;5.85;2.40;;;27.20;41.30;;;;;;4974614;28;20034;-73
2022/08/09 12:18:33;;;;;;;5.00;2.03;;;27.10;41.50;;;;;;5001657;28;20241;-73
2022/08/09 12:21:01;;;;;;;6.20;2.63;;;27.20;42.40;;;;;;4996903;28;20046;-74
2022/08/09 12:23:27;;;;;;;5.88;2.13;;;27.20;42.00;;;;;;4968458;28;20038;-72
2022/08/09 12:25:54;;;;;;;7.53;3.00;;;27.70;42.60;;;;;;4976169;28;20042;-74
2022/08/09 12:28:25;;;;;;;7.53;2.28;;;28.10;41.60;;;;;;4978860;28;20126;-73
2022/08/09 12:30:51;;;;;;;6.60;2.47;;;28.00;40.30;;;;;;4974606;28;20109;-74
2022/08/09 12:33:19;;;;;;;6.70;2.75;;;28.10;40.20;;;;;;4977326;28;20039;-73
2022/08/09 12:35:45;;;;;;;10.40;2.80;;;28.00;40.60;;;;;;4979993;28;20035;-72
2022/08/09 12:38:24;;;;;;;8.20;3.80;;;27.80;41.60;;;;;;4983856;28;20082;-72